Toernooibase
HOME | LAATST INGEVOERD | RATINGS | TOERNOOIEN | ACTUEEL | PARTIJEN | POSITIES | LINKS |

  
Speler:  Bart Terwel 
Leeftijd: 39
KNDB-rating per 1-7-2019: 1371
Hoogste KNDB-rating ooit: 1371
All time gemiddelde KNDB-rating: 1307 
Virtuele KNDB-rating : 1374

FMJD-rating: 2245
Hoogste FMJD-rating ooit: 2245
All time gemiddelde FMJD-rating: 2200

(Grafiek FMJD-rating in periode
KNDB-rating)
     .
     .
DatumToernooiTegenstanderRatWePtR.verN.percN.pun
zo 14-07-2019  WorldCup *** RotterDamsOpen ZHDB  Boudewijn van der Veen  1007 1-2364 0.9 1.8
ma 15-07-2019  WorldCup *** RotterDamsOpen ZHDB  Jasper Daems  1316 1-155 0.58 1.15
di 16-07-2019  WorldCup *** RotterDamsOpen ZHDB  Ron Heusdens  1466 1-1-95 0.37 0.74
wo 17-07-2019  WorldCup *** RotterDamsOpen ZHDB  NDiaga Samb  1461 1-1-90 0.38 0.75
do 18-07-2019  WorldCup *** RotterDamsOpen ZHDB  Anton Schotanus  1279 1-292 0.63 1.25
do 18-07-2019  WorldCup *** RotterDamsOpen ZHDB  Anton van Berkel  1422 1-1-51 0.43 0.86
vr 19-07-2019  WorldCup *** RotterDamsOpen ZHDB  Alexander Getmanski  1511 1-1-140 0.31 0.62
za 20-07-2019  WorldCup *** RotterDamsOpen ZHDB  Jan Groenendijk  1520 1-1-149 0.3 0.6
zo 21-07-2019  Nijmegen Open GDB  Arnoud de Greef  1259 1-2112 0.65 1.3
ma 22-07-2019  Nijmegen Open GDB  Ludger Buijs  1047 1-1324 0.87 1.74
ma 22-07-2019  Nijmegen Open GDB  Gerwin Mollink  1160 1-2211 0.77 1.54
di 23-07-2019  Nijmegen Open GDB  Geert van Aalten  1376 1-0-5 0.49 0.99
di 23-07-2019  Nijmegen Open GDB  David Riupassa  1106 1-2265 0.82 1.65
wo 24-07-2019  Nijmegen Open GDB  Jan van Loenen Jr.  1233 1-1138 0.69 1.37
do 25-07-2019  Nijmegen Open GDB  Shammie Kasnadi  1299 1-172 0.6 1.2
do 25-07-2019  Nijmegen Open GDB  Michel Stempher  1370 1-01 0.5 1
vr 26-07-2019  Nijmegen Open GDB  Cor Langeveld  1089 1-1282 0.84 1.68
za 27-07-2019  Nijmegen Open GDB  Fred van Amersfoort  1021 1-2350 0.89 1.78
za 05-10-2019  Nationale Clubcompetitie KNDB  Jim Depaepe  1156 1-2215 0.77 1.55
za 19-10-2019  Nationale Clubcompetitie KNDB  Bas Messemaker  1393 1-1-22 0.47 0.94
di 29-10-2019  Provinciale Clubcompetitie GDB  Henri van Hierden  1149 1-0222 0.78 1.56
za 09-11-2019  Nationale Clubcompetitie KNDB  Michael Semianiuk  1436 1-1-65 0.41 0.82
za 23-11-2019  Nationale Clubcompetitie KNDB  Marcel Monteba  1335 1-136 0.55 1.1
za 07-12-2019  Nationale Clubcompetitie KNDB  Joost Hendriksen  1325 1-146 0.56 1.13
za 21-12-2019  Nationale Clubcompetitie KNDB  Bj√∂rn Winkel  1221 1-1150 0.7 1.4
za 04-01-2020  Nationale Clubcompetitie KNDB  Harm Wiersma  1540 1-1-169 0.28 0.55
za 11-01-2020  Halve Finale NK Algemeen KNDB  Bhiem Ramdien  1383 1-1-12 0.48 0.97
za 11-01-2020  Halve Finale NK Algemeen KNDB  Han Seinhorst  1256 1-2115 0.66 1.31
za 18-01-2020  Nationale Clubcompetitie KNDB  Odin Mol  1442 1-1-71 0.4 0.8
za 25-01-2020  Halve Finale NK Algemeen KNDB  Andrew Tjon A Ong  1302 1-169 0.6 1.19
za 25-01-2020  Halve Finale NK Algemeen KNDB  Cor Westerveld  1210 1-2161 0.71 1.43
za 01-02-2020  Nationale Clubcompetitie KNDB  Rick Hakvoort  1336 1-235 0.55 1.1
za 08-02-2020  Halve Finale NK Algemeen KNDB  Frits Luteijn  1367 1-04 0.51 1.01
za 08-02-2020  Halve Finale NK Algemeen KNDB  Hein Meijer  1429 1-1-58 0.42 0.84
za 15-02-2020  Nationale Clubcompetitie KNDB  Anatoli Gantvarg  1524 1-1-153 0.3 0.59
 Totaal:35-4140.32
 Correctiefactor:5 (587 p.)
 Berekening:41-40.32 x5=3.38
 Virtuele rating: 1374
 Ratinggem.: 1307 Perc.:0.59Vers.: 62
 Seizoenpr. rating: 1307 +62 1369
* officiele KNDB-rating kan afwijkend zijn van virtuele rating in verband met nieuwe iRp-check